Time;durP1;ratioP1;P1;durP2;ratioP2;P2;SDS_P1;SDS_P2;PMS_P1;PMS_P2;Temp;Humidity;BMP_temperature;BMP_pressure;BME280_temperature;BME280_humidity;BME280_pressure;Samples;Min_cycle;Max_cycle;Signal;HPM_P1;HPM_P2
2021/12/08 00:00:40;;;;;;;5.47;3.10;;;3.20;99.90;;;;;;5053105;28;20275;-55
2021/12/08 00:03:11;;;;;;;9.40;3.50;;;3.20;99.90;;;;;;5033307;28;20669;-53
2021/12/08 00:05:41;;;;;;;7.50;3.27;;;3.20;99.90;;;;;;5033063;28;20237;-55
2021/12/08 00:08:10;;;;;;;4.33;3.00;;;3.20;99.90;;;;;;5032734;28;20210;-54
2021/12/08 00:13:01;;;;;;;5.77;3.13;;;3.20;99.90;;;;;;5033117;28;20261;-54
2021/12/08 00:13:38;;;;;;;7.47;3.73;;;3.20;99.90;;;;;;5032506;28;20290;-54
2021/12/08 00:16:10;;;;;;;6.50;3.20;;;3.30;99.90;;;;;;5033051;28;20305;-54
2021/12/08 00:18:45;;;;;;;4.73;3.00;;;3.30;99.90;;;;;;5032707;28;20259;-54
2021/12/08 00:21:14;;;;;;;5.47;3.10;;;3.30;99.90;;;;;;5032883;28;20328;-54
2021/12/08 00:23:42;;;;;;;6.57;3.13;;;3.30;99.90;;;;;;5032146;28;20768;-55
2021/12/08 00:26:10;;;;;;;6.83;2.83;;;3.40;99.90;;;;;;5032957;28;20255;-56
2021/12/08 00:28:38;;;;;;;6.20;3.50;;;3.40;99.90;;;;;;5032375;28;20246;-54
2021/12/08 00:31:08;;;;;;;6.13;2.80;;;3.40;99.90;;;;;;5032581;28;20354;-55
2021/12/08 00:33:37;;;;;;;4.70;3.17;;;3.40;99.90;;;;;;5032901;28;20606;-55
2021/12/08 00:36:10;;;;;;;4.97;3.30;;;3.40;99.90;;;;;;5032023;28;20220;-54
2021/12/08 00:38:39;;;;;;;6.30;3.20;;;3.50;99.90;;;;;;5032565;28;20218;-55
2021/12/08 00:41:07;;;;;;;4.47;3.23;;;3.40;99.90;;;;;;5031963;28;20679;-55
2021/12/08 00:43:35;;;;;;;6.17;3.47;;;3.40;99.90;;;;;;5032269;28;20295;-53
2021/12/08 00:46:05;;;;;;;7.37;3.50;;;3.40;99.90;;;;;;5032316;28;20249;-55
2021/12/08 00:48:34;;;;;;;5.27;3.10;;;3.50;99.90;;;;;;5032301;28;20303;-55
2021/12/08 00:51:03;;;;;;;6.13;3.47;;;3.40;99.90;;;;;;5031767;28;20266;-55
2021/12/08 00:53:31;;;;;;;5.57;3.60;;;3.50;99.90;;;;;;5045827;28;20231;-55
2021/12/08 00:56:00;;;;;;;6.67;3.60;;;3.50;99.90;;;;;;5051805;28;20654;-53
2021/12/08 00:58:28;;;;;;;4.73;3.30;;;3.50;99.90;;;;;;5052127;28;20230;-54
2021/12/08 01:00:56;;;;;;;6.47;3.80;;;3.50;99.90;;;;;;5051775;28;20282;-55
2021/12/08 01:03:24;;;;;;;5.77;3.43;;;3.40;99.90;;;;;;5051636;28;20317;-54
2021/12/08 01:05:56;;;;;;;5.37;3.57;;;3.50;99.90;;;;;;5051939;28;20248;-54
2021/12/08 01:08:27;;;;;;;6.20;3.70;;;3.40;99.90;;;;;;5051593;28;20233;-54
2021/12/08 01:10:57;;;;;;;7.53;3.50;;;3.40;99.90;;;;;;5051704;28;20779;-54
2021/12/08 01:13:27;;;;;;;7.17;3.83;;;3.40;99.90;;;;;;5051480;28;20213;-54
2021/12/08 01:15:57;;;;;;;6.87;3.70;;;3.40;99.90;;;;;;5051457;28;20670;-55
2021/12/08 01:18:27;;;;;;;5.10;3.57;;;3.40;99.90;;;;;;5051535;28;20209;-55
2021/12/08 01:21:00;;;;;;;4.13;3.13;;;3.40;99.90;;;;;;5051900;28;20275;-55
2021/12/08 01:23:29;;;;;;;8.43;4.20;;;3.50;99.90;;;;;;5051350;28;20266;-55
2021/12/08 01:25:57;;;;;;;7.17;3.40;;;3.50;99.90;;;;;;5051499;28;20219;-53
2021/12/08 01:28:25;;;;;;;6.87;3.70;;;3.50;99.90;;;;;;5050931;28;20865;-53
2021/12/08 01:30:55;;;;;;;8.17;4.07;;;3.50;99.90;;;;;;5051622;28;20267;-53
2021/12/08 01:33:24;;;;;;;5.47;3.40;;;3.40;99.90;;;;;;5051965;28;20227;-52
2021/12/08 01:35:53;;;;;;;4.80;3.50;;;3.50;99.90;;;;;;5051324;28;20254;-53
2021/12/08 01:38:23;;;;;;;6.07;3.37;;;3.40;99.90;;;;;;5051218;28;20235;-54
2021/12/08 01:40:51;;;;;;;5.60;3.40;;;3.40;99.90;;;;;;5050836;28;20653;-53
2021/12/08 01:43:28;;;;;;;4.57;3.63;;;3.30;99.90;;;;;;5050837;28;20252;-53
2021/12/08 01:46:02;;;;;;;5.73;4.00;;;3.30;99.90;;;;;;5050638;28;20252;-53
2021/12/08 01:48:32;;;;;;;4.93;3.60;;;3.30;99.90;;;;;;5051353;28;20210;-54
2021/12/08 01:51:03;;;;;;;5.87;3.60;;;3.30;99.90;;;;;;5050734;28;20266;-54
2021/12/08 01:53:33;;;;;;;6.73;3.57;;;3.30;99.90;;;;;;5050903;28;20229;-54
2021/12/08 01:56:01;;;;;;;4.80;3.83;;;3.20;99.90;;;;;;5051032;28;20622;-54
2021/12/08 01:58:30;;;;;;;7.27;3.93;;;3.10;99.90;;;;;;5050579;28;20231;-54
2021/12/08 02:01:00;;;;;;;4.77;3.73;;;3.10;99.90;;;;;;5050810;28;20313;-53
2021/12/08 02:03:29;;;;;;;5.97;4.10;;;3.10;99.90;;;;;;5051131;28;20741;-55
2021/12/08 02:05:59;;;;;;;8.20;4.10;;;3.10;99.90;;;;;;5049793;28;20206;-53
2021/12/08 02:08:27;;;;;;;6.93;4.17;;;2.90;99.90;;;;;;5050851;28;20205;-54
2021/12/08 02:10:58;;;;;;;7.47;4.90;;;2.90;99.90;;;;;;5050794;28;20258;-53
2021/12/08 02:13:30;;;;;;;9.40;4.60;;;2.90;99.90;;;;;;5050567;28;20252;-54
2021/12/08 02:16:01;;;;;;;6.23;4.13;;;2.90;99.90;;;;;;5051193;28;20207;-53
2021/12/08 02:18:29;;;;;;;5.50;4.10;;;2.90;99.90;;;;;;5050715;28;20236;-54
2021/12/08 02:21:00;;;;;;;6.33;4.47;;;2.80;99.90;;;;;;5050437;28;20272;-54
2021/12/08 02:23:30;;;;;;;6.50;4.40;;;2.80;99.90;;;;;;5050076;28;20221;-54
2021/12/08 02:30:24;;;;;;;7.07;3.80;;;2.80;99.90;;;;;;5032638;28;20224;-54
2021/12/08 02:46:48;;;;;;;6.83;3.73;;;2.80;99.90;;;;;;5050436;28;20245;-54
2021/12/08 02:49:18;;;;;;;6.90;4.30;;;2.70;99.90;;;;;;5050734;28;20630;-54
2021/12/08 02:51:48;;;;;;;5.80;4.03;;;2.60;99.90;;;;;;5050393;28;20261;-55
2021/12/08 02:54:19;;;;;;;6.93;3.73;;;2.70;99.90;;;;;;5030601;28;20865;-54
2021/12/08 02:56:47;;;;;;;4.40;3.70;;;2.70;99.90;;;;;;5030502;28;20207;-55
2021/12/08 02:59:16;;;;;;;4.40;3.70;;;2.60;99.90;;;;;;5030659;28;20306;-53
2021/12/08 03:01:44;;;;;;;5.53;3.67;;;2.60;99.90;;;;;;5029778;28;20690;-53
2021/12/08 03:04:12;;;;;;;4.73;3.90;;;2.60;99.90;;;;;;5030688;28;20235;-53
2021/12/08 03:06:40;;;;;;;8.67;4.20;;;2.60;99.90;;;;;;5030187;28;20204;-54
2021/12/08 03:09:08;;;;;;;5.17;4.43;;;2.70;99.90;;;;;;5030193;28;20230;-54
2021/12/08 03:11:38;;;;;;;7.77;4.27;;;2.70;99.90;;;;;;5030069;28;20269;-54
2021/12/08 03:14:09;;;;;;;5.47;4.23;;;2.70;99.90;;;;;;5030051;28;20637;-54
2021/12/08 03:16:40;;;;;;;5.27;3.80;;;2.60;99.90;;;;;;5031829;28;20316;-54
2021/12/08 03:19:09;;;;;;;4.53;3.57;;;2.70;99.90;;;;;;5053668;28;20214;-54
2021/12/08 03:21:37;;;;;;;7.30;3.87;;;2.70;99.90;;;;;;5053528;28;20262;-54
2021/12/08 03:24:14;;;;;;;6.77;4.20;;;2.60;99.90;;;;;;5053525;28;20298;-55
2021/12/08 03:26:51;;;;;;;7.13;4.50;;;2.60;99.90;;;;;;5053823;28;20211;-54
2021/12/08 03:29:28;;;;;;;6.40;4.20;;;2.50;99.90;;;;;;5053486;28;20410;-53
2021/12/08 03:32:05;;;;;;;8.00;4.53;;;2.60;99.90;;;;;;5053347;28;20272;-54
2021/12/08 03:34:37;;;;;;;6.03;4.20;;;2.50;99.90;;;;;;5053312;28;20230;-53
2021/12/08 03:37:06;;;;;;;7.60;4.63;;;2.50;99.90;;;;;;5053899;28;20586;-56
2021/12/08 03:39:36;;;;;;;6.80;4.57;;;2.60;99.90;;;;;;5053216;28;20207;-54
2021/12/08 03:42:06;;;;;;;5.57;4.83;;;2.60;99.90;;;;;;5053591;28;20229;-54
2021/12/08 03:44:34;;;;;;;5.53;4.27;;;2.60;99.90;;;;;;5053001;28;20285;-54
2021/12/08 03:47:13;;;;;;;8.97;4.70;;;2.70;99.90;;;;;;5053154;28;20245;-54
2021/12/08 03:49:43;;;;;;;7.40;5.00;;;2.70;99.90;;;;;;5053391;28;20301;-55
2021/12/08 03:52:11;;;;;;;6.17;4.50;;;2.60;99.90;;;;;;5052868;28;20204;-54
2021/12/08 03:54:39;;;;;;;5.30;4.43;;;2.60;99.90;;;;;;5053002;28;20201;-54
2021/12/08 03:57:10;;;;;;;5.43;4.93;;;2.60;99.90;;;;;;5053001;28;20233;-53
2021/12/08 03:59:38;;;;;;;7.80;5.23;;;2.60;99.90;;;;;;5053262;28;20689;-53
2021/12/08 04:02:06;;;;;;;7.57;4.90;;;2.60;99.90;;;;;;5052476;28;20257;-53
2021/12/08 04:04:42;;;;;;;7.07;4.87;;;2.60;99.90;;;;;;5052867;28;20260;-54
2021/12/08 04:07:13;;;;;;;7.33;5.27;;;2.60;99.90;;;;;;5053072;28;20236;-54
2021/12/08 04:09:43;;;;;;;6.50;4.87;;;2.60;99.90;;;;;;5053000;28;20719;-55
2021/12/08 04:12:15;;;;;;;5.57;4.97;;;2.70;99.90;;;;;;5052636;28;20198;-55
2021/12/08 04:14:47;;;;;;;6.17;5.50;;;2.60;99.90;;;;;;5053147;28;20198;-53
2021/12/08 04:17:19;;;;;;;6.53;5.47;;;2.70;99.90;;;;;;5051927;28;20206;-54
2021/12/08 04:19:48;;;;;;;6.87;5.73;;;2.70;99.90;;;;;;5052960;28;20234;-54
2021/12/08 04:22:20;;;;;;;8.13;6.03;;;2.70;99.90;;;;;;5053200;28;20612;-53
2021/12/08 04:24:51;;;;;;;6.63;5.07;;;2.70;99.90;;;;;;5052335;28;20312;-53
2021/12/08 04:27:31;;;;;;;10.07;6.13;;;2.80;99.90;;;;;;5052938;28;20209;-53
2021/12/08 04:30:00;;;;;;;8.53;6.10;;;2.80;99.90;;;;;;5051845;28;20216;-54
2021/12/08 04:32:30;;;;;;;6.77;5.80;;;2.70;99.90;;;;;;5052811;28;20263;-54
2021/12/08 04:35:00;;;;;;;7.57;5.70;;;2.70;99.90;;;;;;5052437;28;20245;-53
2021/12/08 04:37:32;;;;;;;7.43;5.83;;;2.80;99.90;;;;;;5052825;28;20209;-54
2021/12/08 04:40:16;;;;;;;7.70;6.70;;;2.80;99.90;;;;;;5053905;28;20689;-54
2021/12/08 04:42:58;;;;;;;9.53;6.40;;;2.80;99.90;;;;;;5068802;28;20212;-56
2021/12/08 04:45:48;;;;;;;7.73;6.10;;;2.80;99.90;;;;;;5055389;28;20736;-55
2021/12/08 04:48:29;;;;;;;7.43;6.37;;;2.80;99.90;;;;;;5052276;28;20304;-54
2021/12/08 04:51:19;;;;;;;10.43;7.50;;;2.80;99.90;;;;;;5052476;28;20262;-54
2021/12/08 05:00:15;;;;;;;10.63;7.57;;;2.80;99.90;;;;;;5052184;28;20233;-54
2021/12/08 05:02:41;;;;;;;9.63;8.07;;;2.80;99.90;;;;;;5031441;28;20259;-53
2021/12/08 05:05:21;;;;;;;8.97;7.17;;;2.80;99.90;;;;;;5031950;28;20265;-53
2021/12/08 05:07:55;;;;;;;10.43;7.07;;;2.80;99.90;;;;;;5032270;28;20221;-54
2021/12/08 05:10:28;;;;;;;8.47;6.70;;;2.80;99.90;;;;;;5031854;28;20274;-54
2021/12/08 05:12:59;;;;;;;8.20;6.87;;;2.90;99.90;;;;;;5031461;28;20213;-54
2021/12/08 05:15:32;;;;;;;8.73;6.67;;;2.90;99.90;;;;;;5031816;28;20214;-55
2021/12/08 05:18:04;;;;;;;11.57;7.33;;;2.90;99.90;;;;;;5031840;28;20186;-53
2021/12/08 05:20:39;;;;;;;8.20;6.60;;;2.90;99.90;;;;;;5032017;28;20370;-54
2021/12/08 05:23:10;;;;;;;8.23;6.60;;;2.90;99.90;;;;;;5031620;28;20252;-55
2021/12/08 05:25:39;;;;;;;8.20;7.10;;;3.00;99.90;;;;;;5031564;28;20266;-53
2021/12/08 05:28:17;;;;;;;8.67;6.70;;;3.00;99.90;;;;;;5031552;28;20206;-55
2021/12/08 05:30:50;;;;;;;7.37;6.20;;;3.00;99.90;;;;;;5031282;28;20263;-53
2021/12/08 05:33:18;;;;;;;9.27;6.67;;;3.10;99.90;;;;;;5031377;28;20579;-53
2021/12/08 05:35:47;;;;;;;9.07;7.40;;;3.20;99.90;;;;;;5031067;28;20236;-55
2021/12/08 05:38:17;;;;;;;9.17;7.00;;;3.20;99.90;;;;;;5031572;28;20637;-55
2021/12/08 05:40:49;;;;;;;8.87;6.23;;;3.20;99.90;;;;;;5030364;28;20276;-54
2021/12/08 05:43:18;;;;;;;7.70;6.80;;;3.30;99.90;;;;;;5031438;28;20271;-54
2021/12/08 05:45:49;;;;;;;8.97;7.10;;;3.20;99.90;;;;;;5030480;28;20272;-55
2021/12/08 05:48:19;;;;;;;13.80;7.20;;;3.20;99.90;;;;;;5031614;28;20237;-54
2021/12/08 05:50:52;;;;;;;9.97;6.63;;;3.20;99.90;;;;;;5031237;28;20222;-54
2021/12/08 05:53:21;;;;;;;9.30;7.10;;;3.20;99.90;;;;;;5043577;28;20230;-53
2021/12/08 05:55:50;;;;;;;11.03;8.33;;;3.20;99.90;;;;;;5050622;28;20229;-54
2021/12/08 05:58:21;;;;;;;13.20;11.43;;;3.30;99.90;;;;;;5050874;28;20245;-55
2021/12/08 06:00:57;;;;;;;8.73;7.60;;;3.10;99.90;;;;;;5050805;28;20226;-53
2021/12/08 06:03:25;;;;;;;11.73;10.20;;;3.30;99.90;;;;;;5050813;28;20252;-53
2021/12/08 06:05:55;;;;;;;13.07;8.73;;;3.30;99.90;;;;;;5050913;28;20268;-54
2021/12/08 06:08:24;;;;;;;8.60;7.80;;;3.30;99.90;;;;;;5050744;28;20206;-54
2021/12/08 06:10:52;;;;;;;9.60;8.17;;;3.40;99.90;;;;;;5050630;28;20225;-54
2021/12/08 06:13:20;;;;;;;11.30;10.10;;;3.40;99.90;;;;;;5050909;28;20210;-53
2021/12/08 06:15:50;;;;;;;10.47;8.50;;;3.50;99.90;;;;;;5050962;28;20232;-54
2021/12/08 06:18:23;;;;;;;8.23;6.40;;;3.50;99.90;;;;;;5050378;28;20214;-54
2021/12/08 06:20:52;;;;;;;7.37;5.40;;;3.40;99.90;;;;;;5050784;28;20663;-55
2021/12/08 06:23:20;;;;;;;7.13;5.60;;;3.40;99.90;;;;;;5049987;28;20666;-53
2021/12/08 06:25:49;;;;;;;6.90;5.10;;;3.50;99.90;;;;;;5050625;28;20270;-54
2021/12/08 06:28:17;;;;;;;6.10;5.20;;;3.40;99.90;;;;;;5050701;28;20252;-55
2021/12/08 06:30:47;;;;;;;8.53;5.90;;;3.50;99.90;;;;;;5050419;28;20749;-57
2021/12/08 06:33:20;;;;;;;8.07;5.83;;;3.50;99.90;;;;;;5050953;28;20202;-55
2021/12/08 06:35:51;;;;;;;7.60;6.57;;;3.50;99.90;;;;;;5050279;28;20245;-54
2021/12/08 06:38:21;;;;;;;7.97;6.33;;;3.50;99.90;;;;;;5050938;28;20296;-55
2021/12/08 06:40:53;;;;;;;8.53;6.03;;;3.50;99.90;;;;;;5050042;28;20354;-54
2021/12/08 06:43:25;;;;;;;7.83;6.73;;;3.50;99.90;;;;;;5050833;28;20220;-54
2021/12/08 06:45:56;;;;;;;8.67;6.67;;;3.50;99.90;;;;;;5049612;28;20283;-55
2021/12/08 06:48:30;;;;;;;8.50;6.20;;;3.60;99.90;;;;;;5050826;28;20218;-53
2021/12/08 06:51:01;;;;;;;6.10;5.13;;;3.50;99.90;;;;;;5045817;28;20225;-54
2021/12/08 06:53:30;;;;;;;8.23;6.13;;;3.50;99.90;;;;;;5049981;28;20325;-53
2021/12/08 06:56:05;;;;;;;6.43;5.83;;;3.50;99.90;;;;;;5053863;28;20266;-53
2021/12/08 06:58:37;;;;;;;8.20;6.47;;;3.50;99.90;;;;;;5054089;28;20231;-54
2021/12/08 07:01:18;;;;;;;6.60;5.80;;;3.60;99.90;;;;;;5054686;28;20232;-56
2021/12/08 07:04:05;;;;;;;15.30;10.73;;;3.60;99.90;;;;;;5057319;28;20201;-60
2021/12/08 07:06:46;;;;;;;16.97;9.93;;;3.60;99.90;;;;;;5056350;28;20225;-53
2021/12/08 07:09:18;;;;;;;21.00;15.33;;;3.60;99.90;;;;;;5057647;28;20279;-52
2021/12/08 07:11:47;;;;;;;19.47;12.77;;;3.60;99.90;;;;;;5055975;28;20224;-52
2021/12/08 07:14:16;;;;;;;20.10;12.73;;;3.70;99.90;;;;;;5055626;28;20740;-54
2021/12/08 07:16:46;;;;;;;8.00;7.17;;;3.70;99.90;;;;;;5054749;28;20239;-54
2021/12/08 07:19:23;;;;;;;9.57;7.00;;;3.70;99.90;;;;;;5054317;28;20788;-53
2021/12/08 07:21:53;;;;;;;6.87;6.10;;;3.70;99.90;;;;;;5054156;28;20263;-54
2021/12/08 07:24:27;;;;;;;9.47;6.90;;;3.80;99.90;;;;;;5053632;28;20185;-54
2021/12/08 07:26:58;;;;;;;13.17;9.57;;;3.70;99.90;;;;;;5053840;28;20236;-54
2021/12/08 07:29:30;;;;;;;8.37;7.57;;;3.70;99.90;;;;;;5053248;28;20310;-53
2021/12/08 07:32:02;;;;;;;10.03;8.77;;;3.70;99.90;;;;;;5063112;28;20224;-55
2021/12/08 07:34:34;;;;;;;12.17;8.73;;;3.70;99.90;;;;;;5069989;28;20209;-55
2021/12/08 07:37:06;;;;;;;10.93;9.83;;;3.70;99.90;;;;;;5054582;28;20233;-54
2021/12/08 07:39:43;;;;;;;10.97;8.43;;;3.70;99.90;;;;;;5053673;28;20316;-54
2021/12/08 07:42:17;;;;;;;9.67;8.60;;;3.70;99.90;;;;;;5053235;28;20213;-56
2021/12/08 07:44:48;;;;;;;8.67;7.47;;;3.70;99.90;;;;;;5053329;28;20300;-54
2021/12/08 07:47:19;;;;;;;8.73;7.23;;;3.70;99.90;;;;;;5053030;28;20221;-57
2021/12/08 07:49:51;;;;;;;10.87;9.60;;;3.80;99.90;;;;;;5053065;28;20208;-55
2021/12/08 07:52:25;;;;;;;12.93;9.80;;;3.70;99.90;;;;;;5053223;28;20201;-55
2021/12/08 07:54:54;;;;;;;10.50;7.77;;;3.70;99.90;;;;;;5052769;28;20236;-53
2021/12/08 07:57:26;;;;;;;10.30;8.13;;;3.70;99.90;;;;;;5053174;28;20686;-53
2021/12/08 07:59:58;;;;;;;7.53;6.63;;;3.70;99.90;;;;;;5052711;28;20255;-55
2021/12/08 08:02:28;;;;;;;13.37;7.77;;;3.80;99.90;;;;;;5052909;28;20209;-54
2021/12/08 08:05:00;;;;;;;10.03;6.97;;;3.70;99.90;;;;;;5051635;28;20237;-55
2021/12/08 08:07:29;;;;;;;9.20;7.27;;;3.70;99.90;;;;;;5053292;28;20329;-55
2021/12/08 08:10:01;;;;;;;10.23;7.80;;;3.80;99.90;;;;;;5052726;28;20275;-55
2021/12/08 08:12:31;;;;;;;9.63;7.97;;;3.80;99.90;;;;;;5033478;28;20206;-53
2021/12/08 08:15:05;;;;;;;10.60;9.40;;;3.80;99.90;;;;;;5032641;28;20917;-55
2021/12/08 08:17:39;;;;;;;14.53;10.47;;;3.80;99.90;;;;;;5032890;28;20251;-54
2021/12/08 08:20:12;;;;;;;10.60;8.93;;;3.80;99.90;;;;;;5032456;28;20262;-54
2021/12/08 08:22:40;;;;;;;11.30;8.70;;;3.80;99.90;;;;;;5032889;28;20209;-54
2021/12/08 08:25:11;;;;;;;9.50;7.43;;;3.80;99.90;;;;;;5032392;28;20237;-55
2021/12/08 08:27:40;;;;;;;9.70;7.07;;;3.90;99.90;;;;;;5033071;28;20268;-54
2021/12/08 08:30:10;;;;;;;9.33;7.50;;;3.90;99.90;;;;;;5032787;28;20702;-54
2021/12/08 08:32:39;;;;;;;9.60;7.27;;;3.90;99.90;;;;;;5032424;28;20210;-54
2021/12/08 08:35:18;;;;;;;9.53;8.53;;;3.90;99.90;;;;;;5032578;28;20245;-54
2021/12/08 08:37:47;;;;;;;9.07;8.13;;;3.90;99.90;;;;;;5032060;28;20253;-53
2021/12/08 08:40:18;;;;;;;11.33;8.33;;;3.90;99.90;;;;;;5035085;28;20228;-54
2021/12/08 08:42:51;;;;;;;10.70;8.10;;;3.90;99.90;;;;;;5052032;28;20213;-54
2021/12/08 08:45:25;;;;;;;11.93;8.43;;;4.00;99.90;;;;;;5052295;28;20263;-53
2021/12/08 08:47:57;;;;;;;10.30;8.00;;;4.00;99.90;;;;;;5051893;28;20265;-55
2021/12/08 08:50:31;;;;;;;12.13;7.67;;;4.10;99.90;;;;;;5052037;28;20238;-53
2021/12/08 08:53:02;;;;;;;11.37;6.90;;;4.10;99.90;;;;;;5051993;28;20283;-55
2021/12/08 08:55:49;;;;;;;8.87;6.63;;;4.10;99.90;;;;;;5052107;28;20725;-56
2021/12/08 08:58:21;;;;;;;9.53;6.73;;;4.10;99.90;;;;;;5051603;28;20310;-54
2021/12/08 09:00:53;;;;;;;11.87;7.13;;;4.10;99.90;;;;;;5051634;28;20769;-55
2021/12/08 09:03:24;;;;;;;8.60;7.80;;;4.10;99.90;;;;;;5051982;28;20209;-55
2021/12/08 09:06:01;;;;;;;12.37;7.57;;;4.20;99.90;;;;;;5052203;28;20240;-54
2021/12/08 09:08:35;;;;;;;10.33;7.87;;;4.20;99.90;;;;;;5051572;28;20275;-54
2021/12/08 09:11:11;;;;;;;10.07;7.70;;;4.20;99.90;;;;;;5051850;28;20242;-55
2021/12/08 09:13:42;;;;;;;11.13;8.00;;;4.20;99.90;;;;;;5051498;28;20201;-54
2021/12/08 09:16:15;;;;;;;11.33;8.13;;;4.20;99.90;;;;;;5051467;28;20275;-55
2021/12/08 09:18:54;;;;;;;10.87;8.17;;;4.10;99.90;;;;;;5051446;28;20238;-54
2021/12/08 09:21:28;;;;;;;10.60;7.47;;;4.20;99.90;;;;;;5051917;28;20277;-53
2021/12/08 09:24:01;;;;;;;10.83;7.30;;;4.20;99.90;;;;;;5051300;28;20205;-54
2021/12/08 09:26:31;;;;;;;11.50;7.40;;;4.20;99.90;;;;;;5051643;28;20258;-54
2021/12/08 09:29:08;;;;;;;9.57;7.73;;;4.20;99.90;;;;;;5051628;28;20327;-54
2021/12/08 09:31:40;;;;;;;9.00;7.00;;;4.30;99.90;;;;;;5050982;28;20721;-54
2021/12/08 09:34:13;;;;;;;9.27;7.13;;;4.30;99.90;;;;;;5051437;28;20209;-53
2021/12/08 09:36:47;;;;;;;11.67;8.43;;;4.30;99.90;;;;;;5053007;28;20241;-55
2021/12/08 09:39:21;;;;;;;9.70;7.67;;;4.30;99.90;;;;;;5051420;28;20235;-56
2021/12/08 09:41:53;;;;;;;9.63;7.20;;;4.40;99.90;;;;;;5050950;28;20231;-55
2021/12/08 09:44:24;;;;;;;10.83;7.30;;;4.40;99.90;;;;;;5050763;28;20214;-55
2021/12/08 09:46:53;;;;;;;11.50;7.50;;;4.40;99.90;;;;;;5051162;28;20618;-55
2021/12/08 09:49:24;;;;;;;10.00;8.17;;;4.40;99.90;;;;;;5051169;28;20204;-55
2021/12/08 09:51:54;;;;;;;13.03;8.20;;;4.40;99.90;;;;;;5051337;28;20256;-56
2021/12/08 09:54:23;;;;;;;10.30;7.47;;;4.40;99.90;;;;;;5050696;28;20670;-54
2021/12/08 09:56:53;;;;;;;10.20;7.93;;;4.40;99.90;;;;;;5050827;28;20206;-53
2021/12/08 09:59:22;;;;;;;11.13;8.70;;;4.40;99.90;;;;;;5051094;28;20235;-55
2021/12/08 10:01:52;;;;;;;10.07;7.93;;;4.40;99.90;;;;;;5050584;28;20782;-55
2021/12/08 10:04:21;;;;;;;11.50;7.70;;;4.50;99.90;;;;;;5051017;28;20246;-55
2021/12/08 10:06:50;;;;;;;11.10;7.80;;;4.50;99.90;;;;;;5050952;28;20580;-54
2021/12/08 10:09:21;;;;;;;11.20;8.07;;;4.60;99.90;;;;;;5050849;28;20373;-55
2021/12/08 10:11:49;;;;;;;10.63;8.77;;;4.60;99.90;;;;;;5050468;28;20239;-54
2021/12/08 10:14:17;;;;;;;11.87;8.93;;;4.60;99.90;;;;;;5050946;28;20233;-56
2021/12/08 10:16:46;;;;;;;11.20;7.87;;;4.60;99.90;;;;;;5050142;28;20245;-55
2021/12/08 10:19:17;;;;;;;13.03;8.63;;;4.60;99.90;;;;;;5051087;28;20353;-54
2021/12/08 10:21:46;;;;;;;13.07;8.47;;;4.60;99.90;;;;;;5051057;28;20257;-55
2021/12/08 10:24:17;;;;;;;12.23;7.97;;;4.60;99.90;;;;;;5065331;28;20215;-57
2021/12/08 10:26:48;;;;;;;10.93;8.27;;;4.60;99.90;;;;;;5061092;28;20250;-55
2021/12/08 10:29:16;;;;;;;10.60;8.50;;;4.70;99.90;;;;;;5055316;28;20252;-54
2021/12/08 10:31:48;;;;;;;14.13;9.50;;;4.70;99.90;;;;;;5054567;28;20261;-55
2021/12/08 10:34:24;;;;;;;13.20;11.10;;;4.70;99.90;;;;;;5055063;28;20251;-55
2021/12/08 10:36:55;;;;;;;16.27;13.73;;;4.80;99.90;;;;;;5053978;28;20194;-54
2021/12/08 10:39:31;;;;;;;11.60;9.20;;;4.80;99.90;;;;;;5054691;28;20203;-56
2021/12/08 10:42:13;;;;;;;11.93;9.40;;;4.80;99.90;;;;;;5053437;28;20644;-56
2021/12/08 10:44:49;;;;;;;12.13;9.07;;;4.80;99.90;;;;;;5054493;28;20224;-54
2021/12/08 10:47:28;;;;;;;15.33;10.17;;;4.80;99.90;;;;;;5053110;28;20204;-55
2021/12/08 10:55:38;;;;;;;15.87;11.47;;;4.80;99.90;;;;;;5054473;28;20213;-54
2021/12/08 10:58:08;;;;;;;16.50;12.67;;;4.80;99.90;;;;;;5054663;28;20200;-55
2021/12/08 11:00:39;;;;;;;20.23;14.63;;;4.80;99.90;;;;;;5056841;28;20263;-54
2021/12/08 11:03:11;;;;;;;18.20;12.20;;;4.80;99.90;;;;;;5045673;28;20204;-55
2021/12/08 11:05:49;;;;;;;18.10;14.27;;;4.90;99.90;;;;;;5035711;28;20207;-55
2021/12/08 11:08:21;;;;;;;16.57;11.63;;;4.90;99.90;;;;;;5036187;28;20264;-54
2021/12/08 11:10:54;;;;;;;15.40;12.17;;;4.90;99.90;;;;;;5035686;28;20253;-54
2021/12/08 11:13:25;;;;;;;14.87;11.73;;;4.90;99.90;;;;;;5033871;28;20209;-55
2021/12/08 11:16:11;;;;;;;16.33;11.50;;;4.90;99.90;;;;;;5032550;28;20204;-54
2021/12/08 11:18:42;;;;;;;13.77;11.17;;;5.00;99.90;;;;;;5034217;28;20206;-55
2021/12/08 11:21:19;;;;;;;14.20;11.50;;;4.90;99.90;;;;;;5033352;28;20314;-54
2021/12/08 11:24:11;;;;;;;15.33;11.57;;;5.00;99.90;;;;;;5032976;28;20215;-54
2021/12/08 11:26:43;;;;;;;15.07;10.40;;;5.00;99.90;;;;;;5042845;28;20208;-55
2021/12/08 11:29:15;;;;;;;15.33;10.47;;;5.00;99.90;;;;;;5052847;28;20322;-54
2021/12/08 11:31:47;;;;;;;15.77;11.13;;;5.10;99.90;;;;;;5052204;28;20252;-56
2021/12/08 11:34:18;;;;;;;12.93;10.23;;;5.10;99.90;;;;;;5052578;28;20206;-55
2021/12/08 11:36:51;;;;;;;18.87;12.40;;;5.20;99.90;;;;;;5052694;28;20421;-54
2021/12/08 11:39:22;;;;;;;16.13;11.57;;;5.20;99.90;;;;;;5052305;28;20241;-56
2021/12/08 11:41:52;;;;;;;13.77;10.13;;;5.20;99.90;;;;;;5052282;28;20235;-55
2021/12/08 11:44:25;;;;;;;16.13;11.10;;;5.20;99.90;;;;;;5052051;28;20244;-54
2021/12/08 11:47:06;;;;;;;14.47;8.87;;;5.30;99.90;;;;;;5052170;28;20203;-55
2021/12/08 11:49:35;;;;;;;11.40;10.07;;;5.30;99.90;;;;;;5052140;28;20310;-54
2021/12/08 11:52:09;;;;;;;13.37;9.40;;;5.30;99.90;;;;;;5051945;28;20793;-56
2021/12/08 11:54:42;;;;;;;15.00;9.43;;;5.30;99.90;;;;;;5051810;28;20226;-54
2021/12/08 11:57:16;;;;;;;17.63;10.33;;;5.40;99.90;;;;;;5052246;28;20244;-55
2021/12/08 11:59:59;;;;;;;12.20;9.10;;;5.30;99.90;;;;;;5051963;28;20205;-54
2021/12/08 12:02:31;;;;;;;12.93;10.03;;;5.30;99.90;;;;;;5052011;28;20209;-56
2021/12/08 12:04:59;;;;;;;12.50;9.40;;;5.30;99.90;;;;;;5052117;28;20206;-55
2021/12/08 12:07:28;;;;;;;11.63;9.13;;;5.30;99.90;;;;;;5051854;28;20213;-54
2021/12/08 12:09:56;;;;;;;12.83;10.03;;;5.30;99.90;;;;;;5051003;28;20264;-55
2021/12/08 12:12:24;;;;;;;19.07;13.37;;;5.40;99.90;;;;;;5052342;28;20256;-54
2021/12/08 12:14:53;;;;;;;15.00;9.90;;;5.40;99.90;;;;;;5051449;28;20289;-54
2021/12/08 12:17:21;;;;;;;16.80;10.67;;;5.40;99.90;;;;;;5051598;28;20671;-55
2021/12/08 12:20:05;;;;;;;15.80;11.40;;;5.40;99.90;;;;;;5050880;28;20271;-55
2021/12/08 12:23:09;;;;;;;13.93;10.57;;;5.40;99.90;;;;;;5051767;28;20618;-54
2021/12/08 12:25:57;;;;;;;15.47;10.03;;;5.40;99.90;;;;;;5051436;28;20208;-54
2021/12/08 12:28:39;;;;;;;14.30;10.37;;;5.40;99.90;;;;;;5052079;28;20213;-55
2021/12/08 12:31:19;;;;;;;15.63;10.80;;;5.40;99.90;;;;;;5051163;28;20243;-54
2021/12/08 12:33:50;;;;;;;16.37;11.00;;;5.40;99.90;;;;;;5042370;28;20667;-54
2021/12/08 12:36:21;;;;;;;11.13;9.63;;;5.40;99.90;;;;;;5034683;28;20259;-59
2021/12/08 12:38:50;;;;;;;13.70;9.93;;;5.40;99.90;;;;;;5032434;28;20217;-54
2021/12/08 12:41:29;;;;;;;11.93;9.33;;;5.40;99.90;;;;;;5031967;28;20232;-54
2021/12/08 12:44:19;;;;;;;19.97;11.10;;;5.40;99.90;;;;;;5032286;28;20215;-54
2021/12/08 12:47:14;;;;;;;14.13;10.27;;;5.40;99.90;;;;;;5031628;28;20576;-55
2021/12/08 12:49:44;;;;;;;19.10;10.40;;;5.40;99.90;;;;;;5031767;28;20242;-55
2021/12/08 12:52:14;;;;;;;17.03;10.30;;;5.40;99.90;;;;;;5032053;28;20261;-55
2021/12/08 12:54:43;;;;;;;18.57;9.80;;;5.50;99.90;;;;;;5031666;28;20216;-55
2021/12/08 12:57:11;;;;;;;15.90;10.03;;;5.40;99.90;;;;;;5034262;28;20685;-55
2021/12/08 12:59:42;;;;;;;14.77;9.80;;;5.50;99.90;;;;;;5043298;28;20657;-54
2021/12/08 13:02:19;;;;;;;15.53;9.93;;;5.50;99.90;;;;;;5050621;28;20637;-54
2021/12/08 13:04:54;;;;;;;16.50;11.80;;;5.50;99.90;;;;;;5050425;28;20608;-54
2021/12/08 13:07:23;;;;;;;16.33;11.07;;;5.50;99.90;;;;;;5050574;28;20201;-54
2021/12/08 13:09:53;;;;;;;13.03;9.67;;;5.50;99.90;;;;;;5049983;28;20221;-55
2021/12/08 13:12:25;;;;;;;13.47;10.03;;;5.50;99.90;;;;;;5050367;28;20205;-54
2021/12/08 13:15:13;;;;;;;13.77;10.03;;;5.50;99.90;;;;;;5050661;28;20233;-56
2021/12/08 13:18:01;;;;;;;14.17;10.13;;;5.50;99.90;;;;;;5050375;28;20678;-54
2021/12/08 13:20:32;;;;;;;15.20;10.50;;;5.50;99.90;;;;;;5050425;28;20222;-54
2021/12/08 13:23:03;;;;;;;14.63;10.53;;;5.50;99.90;;;;;;5057824;28;20206;-55
2021/12/08 13:25:48;;;;;;;17.20;10.63;;;5.50;99.90;;;;;;5071814;28;20216;-55
2021/12/08 13:28:31;;;;;;;15.80;11.43;;;5.50;99.90;;;;;;5055843;28;20578;-55
2021/12/08 13:31:08;;;;;;;15.90;11.50;;;5.50;99.90;;;;;;5049449;28;20255;-55
2021/12/08 13:33:40;;;;;;;17.33;11.03;;;5.40;99.90;;;;;;5050363;28;20211;-56
2021/12/08 13:36:32;;;;;;;15.80;11.17;;;5.50;99.90;;;;;;5050218;28;20232;-55
2021/12/08 13:39:14;;;;;;;18.40;12.77;;;5.50;99.90;;;;;;5049905;28;20271;-54
2021/12/08 13:41:53;;;;;;;17.17;12.13;;;5.50;99.90;;;;;;5050243;28;20264;-54
2021/12/08 13:44:24;;;;;;;17.13;12.27;;;5.50;99.90;;;;;;5049719;28;20252;-54
2021/12/08 13:46:54;;;;;;;18.83;13.40;;;5.50;99.90;;;;;;5049710;28;20212;-55